Time;durP1;ratioP1;P1;durP2;ratioP2;P2;SDS_P1;SDS_P2;PMS_P1;PMS_P2;Temp;Humidity;BMP_temperature;BMP_pressure;BME280_temperature;BME280_humidity;BME280_pressure;Samples;Min_cycle;Max_cycle;Signal;HPM_P1;HPM_P2
2022/11/09 00:00:00;;;;;;;4.87;2.40;;;14.20;99.90;;;;;;5001642;28;20240;-73
2022/11/09 00:02:27;;;;;;;10.00;2.37;;;14.10;99.90;;;;;;5021635;28;20213;-72
2022/11/09 00:04:53;;;;;;;13.30;2.63;;;14.20;99.90;;;;;;5010354;28;20578;-73
2022/11/09 00:07:20;;;;;;;8.50;2.90;;;14.30;99.90;;;;;;5020087;28;20310;-73
2022/11/09 00:09:47;;;;;;;5.20;2.60;;;14.30;99.90;;;;;;5021222;28;20288;-72
2022/11/09 00:12:14;;;;;;;7.87;2.77;;;14.30;99.90;;;;;;5020698;28;20213;-72
2022/11/09 00:14:40;;;;;;;4.27;2.20;;;14.30;99.90;;;;;;5022240;28;20320;-72
2022/11/09 00:17:07;;;;;;;4.67;2.50;;;14.40;99.90;;;;;;5024556;28;20272;-74
2022/11/09 00:19:34;;;;;;;7.43;2.30;;;14.40;99.90;;;;;;5025287;28;20237;-72
2022/11/09 00:22:01;;;;;;;6.70;3.20;;;14.40;99.90;;;;;;5029192;28;20209;-72
2022/11/09 00:24:27;;;;;;;6.93;2.87;;;14.40;99.90;;;;;;5023036;28;20281;-73
2022/11/09 00:26:54;;;;;;;3.27;2.33;;;14.40;99.90;;;;;;5012619;28;20244;-73
2022/11/09 00:29:21;;;;;;;6.13;2.37;;;14.40;99.90;;;;;;5023646;28;20667;-73
2022/11/09 00:31:48;;;;;;;3.90;2.50;;;14.40;99.90;;;;;;5030904;28;20300;-74
2022/11/09 00:34:15;;;;;;;7.33;2.53;;;14.40;99.90;;;;;;5022912;28;20294;-73
2022/11/09 00:36:42;;;;;;;7.20;2.77;;;14.40;99.90;;;;;;5022846;28;20244;-72
2022/11/09 00:39:09;;;;;;;8.93;2.50;;;14.50;99.90;;;;;;5025323;28;20293;-73
2022/11/09 00:41:36;;;;;;;6.93;2.20;;;14.50;99.90;;;;;;5012061;28;20251;-72
2022/11/09 00:44:03;;;;;;;4.37;2.10;;;14.50;99.90;;;;;;5021886;28;20210;-73
2022/11/09 00:46:30;;;;;;;5.73;2.30;;;14.50;99.90;;;;;;5025230;28;20240;-72
2022/11/09 00:48:56;;;;;;;8.07;2.60;;;14.50;99.90;;;;;;5024176;28;20210;-71
2022/11/09 00:51:24;;;;;;;7.03;2.70;;;14.50;99.90;;;;;;5023915;28;20653;-73
2022/11/09 00:53:53;;;;;;;7.73;2.60;;;14.50;99.90;;;;;;5022670;28;20671;-72
2022/11/09 00:56:21;;;;;;;7.23;2.40;;;14.50;99.90;;;;;;5025490;28;20233;-73
2022/11/09 00:58:53;;;;;;;5.23;2.40;;;14.40;99.90;;;;;;5020635;28;20238;-72
2022/11/09 01:01:20;;;;;;;8.80;2.50;;;14.40;99.90;;;;;;5012375;28;20210;-72
2022/11/09 01:03:47;;;;;;;4.67;2.20;;;14.30;99.90;;;;;;5018035;28;20207;-72
2022/11/09 01:06:17;;;;;;;5.70;2.57;;;14.30;99.90;;;;;;5022271;28;20268;-74
2022/11/09 01:08:45;;;;;;;7.60;2.83;;;14.30;99.90;;;;;;5021428;28;20480;-72
2022/11/09 01:11:12;;;;;;;6.73;2.60;;;14.20;99.90;;;;;;5012554;28;20260;-71
2022/11/09 01:13:39;;;;;;;7.00;2.70;;;14.20;99.90;;;;;;5025810;28;20593;-73
2022/11/09 01:16:12;;;;;;;10.17;2.20;;;14.10;99.90;;;;;;5024952;28;20298;-72
2022/11/09 01:18:39;;;;;;;6.57;2.40;;;14.20;99.90;;;;;;5025087;28;20348;-71
2022/11/09 01:21:08;;;;;;;11.47;2.67;;;14.10;99.90;;;;;;5025282;28;20280;-73
2022/11/09 01:23:36;;;;;;;9.47;3.20;;;14.10;99.90;;;;;;5008960;28;20320;-72
2022/11/09 01:26:05;;;;;;;5.57;2.50;;;14.00;99.90;;;;;;5022499;28;20325;-71
2022/11/09 01:28:33;;;;;;;7.17;2.50;;;14.00;99.90;;;;;;5022255;28;20214;-72
2022/11/09 01:31:03;;;;;;;8.63;2.37;;;14.00;99.90;;;;;;5027356;28;20281;-72
2022/11/09 01:33:30;;;;;;;9.33;2.60;;;14.00;99.90;;;;;;5015786;28;20218;-73
2022/11/09 01:36:05;;;;;;;6.07;2.30;;;13.90;99.90;;;;;;5019475;28;20243;-73
2022/11/09 01:38:34;;;;;;;4.97;2.37;;;13.90;99.90;;;;;;5021779;28;20272;-72
2022/11/09 01:41:01;;;;;;;7.87;2.40;;;13.90;99.90;;;;;;5024864;28;20289;-72
2022/11/09 01:43:28;;;;;;;8.97;2.37;;;13.80;99.90;;;;;;5020387;28;20301;-73
2022/11/09 01:46:21;;;;;;;5.07;2.27;;;13.80;99.90;;;;;;5028407;28;20257;-72
2022/11/09 01:48:59;;;;;;;8.10;2.20;;;13.80;99.90;;;;;;5019868;28;20216;-73
2022/11/09 01:51:34;;;;;;;14.47;3.30;;;13.70;99.90;;;;;;5020559;28;20222;-72
2022/11/09 01:54:07;;;;;;;8.63;2.23;;;13.70;99.90;;;;;;5024845;28;20294;-72
2022/11/09 01:56:38;;;;;;;7.37;2.17;;;13.70;99.90;;;;;;5030879;28;20233;-73
2022/11/09 01:59:10;;;;;;;9.93;2.80;;;13.70;99.90;;;;;;5024263;28;20289;-72
2022/11/09 02:01:37;;;;;;;8.13;2.10;;;13.70;99.90;;;;;;5017328;28;20744;-73
2022/11/09 02:04:12;;;;;;;6.47;2.77;;;13.70;99.90;;;;;;5025735;28;20994;-72
2022/11/09 02:06:39;;;;;;;9.20;2.40;;;14.10;99.90;;;;;;5021938;28;20213;-73
2022/11/09 02:09:17;;;;;;;9.60;2.90;;;13.60;99.90;;;;;;5020948;28;20215;-72
2022/11/09 02:11:43;;;;;;;8.97;2.30;;;13.60;99.90;;;;;;5007987;28;20585;-72
2022/11/09 02:14:11;;;;;;;13.60;2.73;;;13.60;99.90;;;;;;5023678;28;20215;-73
2022/11/09 02:16:39;;;;;;;12.33;2.67;;;13.60;99.90;;;;;;5023944;28;20248;-73
2022/11/09 02:19:06;;;;;;;13.00;2.50;;;13.50;99.90;;;;;;5007336;28;20210;-72
2022/11/09 02:21:33;;;;;;;5.57;2.43;;;13.50;99.90;;;;;;5010366;28;20703;-72
2022/11/09 02:24:00;;;;;;;8.23;2.63;;;13.40;99.90;;;;;;5022373;28;20547;-72
2022/11/09 02:26:46;;;;;;;6.57;2.20;;;13.40;99.90;;;;;;5022421;28;20297;-72
2022/11/09 02:29:17;;;;;;;7.30;2.30;;;13.40;99.90;;;;;;5010048;28;20645;-71
2022/11/09 02:31:52;;;;;;;7.57;2.43;;;13.40;99.90;;;;;;5012607;28;20301;-72
2022/11/09 02:34:20;;;;;;;9.63;2.50;;;13.40;99.90;;;;;;5020651;28;20197;-73
2022/11/09 02:36:47;;;;;;;6.73;2.20;;;13.40;99.90;;;;;;5006501;28;20234;-71
2022/11/09 02:39:17;;;;;;;6.87;2.17;;;13.40;99.90;;;;;;5022722;28;20381;-72
2022/11/09 02:41:54;;;;;;;4.47;1.90;;;13.40;99.90;;;;;;5007694;28;20207;-72
2022/11/09 02:44:22;;;;;;;10.07;2.47;;;13.50;99.90;;;;;;5017457;28;20221;-71
2022/11/09 02:46:49;;;;;;;5.13;1.90;;;13.50;99.90;;;;;;5023568;28;20563;-72
2022/11/09 02:49:16;;;;;;;7.60;2.03;;;13.50;99.90;;;;;;5021472;28;20778;-71
2022/11/09 02:51:42;;;;;;;7.90;2.33;;;13.60;99.90;;;;;;5007446;28;20553;-72
2022/11/09 02:54:09;;;;;;;6.17;2.23;;;13.60;99.90;;;;;;5021860;28;20305;-73
2022/11/09 02:56:36;;;;;;;5.57;2.23;;;13.60;99.90;;;;;;5020134;28;20600;-73
2022/11/09 02:59:03;;;;;;;6.90;2.40;;;13.60;99.90;;;;;;5022453;28;20284;-72
2022/11/09 03:01:29;;;;;;;3.80;2.10;;;13.60;99.90;;;;;;5021695;28;20237;-73
2022/11/09 03:03:56;;;;;;;6.97;3.10;;;13.50;99.90;;;;;;5023732;28;20662;-71
2022/11/09 03:06:33;;;;;;;8.77;3.30;;;13.60;99.90;;;;;;5007044;28;20288;-72
2022/11/09 03:09:05;;;;;;;6.80;3.13;;;13.60;99.90;;;;;;5022392;28;20987;-72
2022/11/09 03:11:32;;;;;;;8.20;2.90;;;13.50;99.90;;;;;;5015392;28;20569;-71
2022/11/09 03:13:59;;;;;;;8.00;3.23;;;13.50;99.90;;;;;;5023125;28;20559;-72
2022/11/09 03:16:27;;;;;;;9.03;2.80;;;13.50;99.90;;;;;;5018851;28;20222;-72
2022/11/09 03:18:54;;;;;;;5.37;2.63;;;13.50;99.90;;;;;;5012223;28;20208;-74
2022/11/09 03:21:21;;;;;;;5.67;2.40;;;13.50;99.90;;;;;;5023081;28;20308;-72
2022/11/09 03:23:48;;;;;;;5.63;2.43;;;13.40;99.90;;;;;;5026320;28;20544;-73
2022/11/09 03:26:16;;;;;;;5.93;2.53;;;13.40;99.90;;;;;;4986183;28;20214;-73
2022/11/09 03:28:42;;;;;;;6.83;2.53;;;13.40;99.90;;;;;;5020468;28;20691;-73
2022/11/09 03:31:09;;;;;;;8.47;2.47;;;13.40;99.90;;;;;;5023377;28;20299;-73
2022/11/09 03:33:36;;;;;;;10.00;2.80;;;13.30;99.90;;;;;;5025573;28;20325;-73
2022/11/09 03:36:03;;;;;;;6.53;2.83;;;13.40;99.90;;;;;;5018425;28;20231;-73
2022/11/09 03:38:30;;;;;;;11.17;3.67;;;13.40;99.90;;;;;;5019660;28;20717;-73
2022/11/09 03:41:01;;;;;;;6.83;3.00;;;13.40;99.90;;;;;;5022010;28;20209;-73
2022/11/09 03:43:28;;;;;;;11.90;2.87;;;13.40;99.90;;;;;;5011990;28;20206;-72
2022/11/09 03:45:55;;;;;;;7.00;2.67;;;13.40;99.90;;;;;;5018419;28;20539;-71
2022/11/09 03:48:22;;;;;;;7.50;3.00;;;13.40;99.90;;;;;;5021406;28;20552;-72
2022/11/09 03:50:49;;;;;;;6.73;2.50;;;13.50;99.90;;;;;;5022041;28;20224;-73
2022/11/09 03:53:16;;;;;;;8.70;3.70;;;13.40;99.90;;;;;;5023484;28;20228;-74
2022/11/09 03:55:43;;;;;;;7.07;2.73;;;13.50;99.90;;;;;;5018812;28;20538;-72
2022/11/09 03:58:12;;;;;;;9.83;2.53;;;13.50;99.90;;;;;;5021299;28;20237;-73
2022/11/09 04:00:38;;;;;;;6.47;2.33;;;13.50;99.90;;;;;;5017688;28;20265;-72
2022/11/09 04:03:05;;;;;;;9.50;2.67;;;13.60;99.90;;;;;;5022723;28;20586;-73
2022/11/09 04:05:32;;;;;;;5.93;2.17;;;13.50;99.90;;;;;;5016644;28;20879;-72
2022/11/09 04:07:59;;;;;;;4.80;2.30;;;13.50;99.90;;;;;;5019859;28;20609;-72
2022/11/09 04:10:26;;;;;;;7.97;2.40;;;13.50;99.90;;;;;;5022149;28;20329;-72
2022/11/09 04:12:53;;;;;;;7.17;2.27;;;13.50;99.90;;;;;;5022672;28;20201;-72
2022/11/09 04:15:20;;;;;;;6.93;2.43;;;13.50;99.90;;;;;;5022465;28;20574;-72
2022/11/09 04:18:14;;;;;;;9.93;2.40;;;13.40;99.90;;;;;;5000923;28;20234;-73
2022/11/09 04:20:41;;;;;;;6.03;2.27;;;13.40;99.90;;;;;;5017703;28;20272;-73
2022/11/09 04:23:11;;;;;;;3.63;2.20;;;13.30;99.90;;;;;;5025159;28;20293;-71
2022/11/09 04:25:39;;;;;;;8.17;2.80;;;13.30;99.90;;;;;;5009425;28;20206;-72
2022/11/09 04:28:09;;;;;;;6.70;2.10;;;13.20;99.90;;;;;;5020791;28;20292;-71
2022/11/09 04:30:36;;;;;;;5.17;2.03;;;13.20;99.90;;;;;;5022999;28;20299;-72
2022/11/09 04:33:03;;;;;;;5.40;2.07;;;13.20;99.90;;;;;;5007569;28;20732;-73
2022/11/09 04:35:32;;;;;;;6.13;2.17;;;13.10;99.90;;;;;;5016730;28;20651;-72
2022/11/09 04:38:02;;;;;;;6.70;2.57;;;13.10;99.90;;;;;;5018752;28;20269;-73
2022/11/09 04:40:30;;;;;;;6.07;2.40;;;13.10;99.90;;;;;;5021265;28;20212;-71
2022/11/09 04:43:02;;;;;;;6.10;2.10;;;13.10;99.90;;;;;;5021249;28;20235;-72
2022/11/09 04:45:29;;;;;;;6.13;2.40;;;13.10;99.90;;;;;;5016216;28;20199;-72
2022/11/09 04:47:57;;;;;;;7.17;2.30;;;13.10;99.90;;;;;;5022662;28;20426;-72
2022/11/09 04:50:25;;;;;;;8.70;2.43;;;13.10;99.90;;;;;;5004781;28;20599;-71
2022/11/09 04:52:51;;;;;;;6.03;2.43;;;13.00;99.90;;;;;;5023015;28;20305;-71
2022/11/09 04:55:18;;;;;;;8.40;2.40;;;13.00;99.90;;;;;;5018388;28;20468;-71
2022/11/09 04:57:45;;;;;;;5.70;2.10;;;13.10;99.90;;;;;;5018062;28;20622;-73
2022/11/09 05:00:12;;;;;;;8.90;2.10;;;13.00;99.90;;;;;;5008503;28;20206;-73
2022/11/09 05:02:39;;;;;;;8.57;2.03;;;13.00;99.90;;;;;;5024558;28;20645;-72
2022/11/09 05:05:06;;;;;;;9.33;2.67;;;13.00;99.90;;;;;;5022681;28;20306;-72
2022/11/09 05:07:33;;;;;;;8.70;2.20;;;13.00;99.90;;;;;;5024752;28;20217;-72
2022/11/09 05:09:59;;;;;;;11.13;2.27;;;12.90;99.90;;;;;;5023574;28;20229;-73
2022/11/09 05:12:26;;;;;;;10.50;2.10;;;12.90;99.90;;;;;;5023844;28;20213;-73
2022/11/09 05:14:53;;;;;;;6.97;2.10;;;12.90;99.90;;;;;;5020731;28;20202;-72
2022/11/09 05:17:19;;;;;;;10.27;2.77;;;12.90;99.90;;;;;;5024892;28;20689;-72
2022/11/09 05:19:46;;;;;;;10.00;2.40;;;12.90;99.90;;;;;;5021935;28;20305;-72
2022/11/09 05:25:01;;;;;;;9.93;2.20;;;12.80;99.90;;;;;;5027635;28;20212;-73
2022/11/09 05:27:28;;;;;;;4.87;1.83;;;12.80;99.90;;;;;;5025191;28;20552;-72
2022/11/09 05:29:55;;;;;;;9.17;2.20;;;12.80;99.90;;;;;;5011410;28;20708;-74
2022/11/09 05:32:21;;;;;;;5.80;1.93;;;12.70;99.90;;;;;;5023410;28;20612;-73
2022/11/09 05:34:48;;;;;;;7.40;2.10;;;12.80;99.90;;;;;;5022373;28;20218;-74
2022/11/09 05:37:16;;;;;;;9.30;2.40;;;12.70;99.90;;;;;;5024065;28;20229;-72
2022/11/09 05:39:43;;;;;;;10.23;2.67;;;12.70;99.90;;;;;;5007233;28;20205;-74
2022/11/09 05:42:10;;;;;;;8.67;2.40;;;12.60;99.90;;;;;;5024235;28;20263;-72
2022/11/09 05:44:36;;;;;;;10.20;2.50;;;12.60;99.90;;;;;;5005762;28;20263;-73
2022/11/09 05:47:03;;;;;;;10.03;2.97;;;12.60;99.90;;;;;;5025761;28;20214;-72
2022/11/09 05:49:30;;;;;;;8.50;2.63;;;12.60;99.90;;;;;;5018934;28;20693;-72
2022/11/09 05:51:57;;;;;;;8.23;2.63;;;12.50;99.90;;;;;;5016034;28;20233;-71
2022/11/09 05:54:24;;;;;;;11.07;2.60;;;12.50;99.90;;;;;;5007642;28;20206;-72
2022/11/09 05:56:50;;;;;;;10.23;2.50;;;12.50;99.90;;;;;;5027075;28;20584;-73
2022/11/09 05:59:17;;;;;;;8.07;2.40;;;12.50;99.90;;;;;;5027411;28;20214;-74
2022/11/09 06:01:47;;;;;;;9.27;2.50;;;12.50;99.90;;;;;;5027814;28;20213;-73
2022/11/09 06:04:14;;;;;;;8.17;2.30;;;12.50;99.90;;;;;;5011013;28;20285;-72
2022/11/09 06:06:42;;;;;;;8.27;2.57;;;12.50;99.90;;;;;;5030544;28;20374;-73
2022/11/09 06:09:09;;;;;;;10.23;2.33;;;12.50;99.90;;;;;;5033099;28;20320;-72
2022/11/09 06:11:35;;;;;;;10.93;2.73;;;12.50;99.90;;;;;;5025210;28;20289;-72
2022/11/09 06:14:02;;;;;;;10.20;2.50;;;12.50;99.90;;;;;;5008369;28;20212;-72
2022/11/09 06:16:30;;;;;;;17.80;3.63;;;12.40;99.90;;;;;;5031647;28;20610;-72
2022/11/09 06:18:57;;;;;;;8.17;2.40;;;12.40;99.90;;;;;;5025807;28;20313;-72
2022/11/09 06:21:24;;;;;;;12.67;2.93;;;12.40;99.90;;;;;;5029862;28;20269;-71
2022/11/09 06:23:51;;;;;;;11.27;2.90;;;12.40;99.90;;;;;;5024692;28;20297;-74
2022/11/09 06:26:17;;;;;;;13.00;3.40;;;12.40;99.90;;;;;;5006815;28;20238;-73
2022/11/09 06:28:44;;;;;;;7.23;2.60;;;12.40;99.90;;;;;;5009004;28;20687;-72
2022/11/09 06:31:15;;;;;;;13.73;3.30;;;12.30;99.90;;;;;;5011311;28;20237;-73
2022/11/09 06:33:42;;;;;;;12.47;2.70;;;12.30;99.90;;;;;;5024848;28;20203;-72
2022/11/09 06:36:10;;;;;;;9.67;2.67;;;12.30;99.90;;;;;;5023518;28;20295;-71
2022/11/09 06:38:37;;;;;;;7.40;2.80;;;12.30;99.90;;;;;;5021411;28;20221;-74
2022/11/09 06:41:04;;;;;;;9.67;2.60;;;12.30;99.90;;;;;;5020804;28;20300;-72
2022/11/09 06:43:31;;;;;;;10.07;2.50;;;12.30;99.90;;;;;;5025023;28;20632;-73
2022/11/09 06:45:59;;;;;;;10.80;3.07;;;12.30;99.90;;;;;;5022945;28;20279;-72
2022/11/09 06:48:26;;;;;;;15.27;3.40;;;12.20;99.90;;;;;;5027770;28;20260;-72
2022/11/09 06:50:53;;;;;;;9.97;2.60;;;12.20;99.90;;;;;;5025710;28;20607;-72
2022/11/09 06:53:19;;;;;;;8.40;2.43;;;12.20;99.90;;;;;;5028467;28;20233;-73
2022/11/09 06:55:47;;;;;;;12.67;2.90;;;12.20;99.90;;;;;;5018678;28;20679;-73
2022/11/09 06:58:18;;;;;;;12.77;3.43;;;12.20;99.90;;;;;;5019746;28;20249;-73
2022/11/09 07:00:45;;;;;;;14.10;2.80;;;12.20;99.90;;;;;;5022533;28;20215;-72
2022/11/09 07:03:17;;;;;;;17.00;2.87;;;12.20;99.90;;;;;;5022334;28;20297;-73
2022/11/09 07:05:45;;;;;;;14.20;2.90;;;12.20;99.90;;;;;;5022351;28;20202;-72
2022/11/09 07:08:13;;;;;;;7.27;2.70;;;12.30;99.90;;;;;;5019908;28;20242;-72
2022/11/09 07:10:40;;;;;;;19.90;2.87;;;12.20;99.90;;;;;;5024153;28;20563;-72
2022/11/09 07:13:08;;;;;;;14.97;3.00;;;12.20;99.90;;;;;;5020801;28;20293;-73
2022/11/09 07:15:36;;;;;;;11.33;3.10;;;12.20;99.90;;;;;;5020047;28;20260;-72
2022/11/09 07:18:05;;;;;;;12.03;2.80;;;12.20;99.90;;;;;;5019574;28;20612;-72
2022/11/09 07:20:32;;;;;;;10.63;3.37;;;12.20;99.90;;;;;;5021193;28;20567;-72
2022/11/09 07:22:59;;;;;;;13.23;2.60;;;12.20;99.90;;;;;;5023268;28;20202;-72
2022/11/09 07:25:26;;;;;;;10.77;3.27;;;12.30;99.90;;;;;;5004978;28;20219;-72
2022/11/09 07:27:53;;;;;;;13.83;2.77;;;12.30;99.90;;;;;;5018707;28;20205;-71
2022/11/09 07:30:20;;;;;;;8.30;2.57;;;12.30;99.90;;;;;;5026778;28;20270;-72
2022/11/09 07:32:47;;;;;;;15.13;2.90;;;12.30;99.90;;;;;;5022206;28;20744;-72
2022/11/09 07:35:33;;;;;;;8.37;2.60;;;12.30;99.90;;;;;;5017996;28;20316;-72
2022/11/09 07:38:00;;;;;;;11.47;2.83;;;12.30;99.90;;;;;;5010402;28;20233;-71
2022/11/09 07:40:28;;;;;;;10.27;3.23;;;12.30;99.90;;;;;;5021537;28;20710;-72
2022/11/09 07:42:59;;;;;;;10.90;2.70;;;12.30;99.90;;;;;;5025587;28;20228;-72
2022/11/09 07:45:28;;;;;;;6.93;2.97;;;12.40;99.90;;;;;;5009182;28;20237;-73
2022/11/09 07:48:06;;;;;;;16.83;4.07;;;12.40;99.90;;;;;;5026435;28;20277;-71
2022/11/09 07:50:34;;;;;;;14.13;2.70;;;12.40;99.90;;;;;;5026869;28;20240;-73
2022/11/09 07:53:05;;;;;;;10.90;3.00;;;12.40;99.90;;;;;;5022634;28;20202;-71
2022/11/09 07:55:33;;;;;;;14.93;3.40;;;12.40;99.90;;;;;;5020338;28;20222;-72
2022/11/09 07:58:03;;;;;;;12.00;2.77;;;12.40;99.90;;;;;;5020341;28;20324;-72
2022/11/09 08:00:34;;;;;;;10.07;2.70;;;12.50;99.90;;;;;;5008613;28;20206;-72
2022/11/09 08:03:01;;;;;;;8.90;2.87;;;12.50;99.90;;;;;;5023897;28;20212;-72
2022/11/09 08:05:28;;;;;;;10.03;2.77;;;12.60;99.90;;;;;;5009551;28;20292;-72
2022/11/09 08:07:57;;;;;;;9.20;3.00;;;12.60;99.90;;;;;;5022355;28;20253;-72
2022/11/09 08:10:25;;;;;;;12.53;2.97;;;12.60;99.90;;;;;;5022593;28;20202;-72
2022/11/09 08:13:02;;;;;;;10.60;2.80;;;12.60;99.90;;;;;;5025668;28;20197;-71
2022/11/09 08:15:29;;;;;;;10.50;2.87;;;12.60;99.90;;;;;;5022504;28;20284;-73
2022/11/09 08:18:01;;;;;;;10.70;2.70;;;12.70;99.90;;;;;;5006005;28;20226;-72
2022/11/09 08:20:29;;;;;;;11.90;2.83;;;12.70;99.90;;;;;;5024213;28;20534;-73
2022/11/09 08:22:56;;;;;;;9.90;3.10;;;12.70;99.90;;;;;;5019399;28;20301;-74
2022/11/09 08:25:31;;;;;;;8.00;2.70;;;12.80;99.90;;;;;;5021078;28;20295;-72
2022/11/09 08:27:58;;;;;;;8.93;2.70;;;12.80;99.90;;;;;;5017523;28;20272;-72
2022/11/09 08:30:25;;;;;;;12.17;3.40;;;12.80;99.90;;;;;;5025325;28;20233;-73
2022/11/09 08:32:52;;;;;;;8.83;2.57;;;12.80;99.90;;;;;;5001756;28;20228;-71
2022/11/09 08:35:22;;;;;;;11.07;2.50;;;12.80;99.90;;;;;;5021537;28;20240;-73
2022/11/09 08:37:50;;;;;;;9.37;2.70;;;12.90;99.90;;;;;;5012643;28;20244;-72
2022/11/09 08:40:23;;;;;;;11.80;3.43;;;12.90;99.90;;;;;;5012048;28;20209;-73
2022/11/09 08:42:50;;;;;;;10.90;2.87;;;12.90;99.90;;;;;;5011709;28;20640;-72
2022/11/09 08:45:18;;;;;;;7.93;2.43;;;13.00;99.90;;;;;;5024344;28;20296;-71
2022/11/09 08:47:45;;;;;;;11.10;2.47;;;13.00;99.90;;;;;;5023090;28;20220;-73
2022/11/09 08:50:13;;;;;;;10.47;3.17;;;13.00;99.90;;;;;;5021929;28;20272;-72
2022/11/09 08:52:40;;;;;;;8.17;2.40;;;13.10;99.90;;;;;;5023920;28;20222;-72
2022/11/09 08:55:07;;;;;;;11.77;2.97;;;13.10;99.90;;;;;;5004995;28;20261;-73
2022/11/09 08:57:34;;;;;;;11.77;2.50;;;13.10;99.90;;;;;;5022646;28;20242;-71
2022/11/09 09:00:01;;;;;;;13.37;2.93;;;13.20;99.90;;;;;;5024736;28;20356;-71
2022/11/09 09:02:27;;;;;;;11.80;3.73;;;13.20;99.90;;;;;;5021577;28;20264;-73
2022/11/09 09:04:54;;;;;;;13.33;3.00;;;13.30;99.90;;;;;;5024320;28;20240;-73
2022/11/09 09:07:21;;;;;;;9.07;2.87;;;13.30;99.90;;;;;;5021873;28;20249;-72
2022/11/09 09:09:48;;;;;;;17.00;3.60;;;13.40;99.90;;;;;;5010234;28;20264;-72
2022/11/09 09:12:15;;;;;;;11.03;2.93;;;13.50;99.90;;;;;;5024770;28;20206;-72
2022/11/09 09:14:41;;;;;;;8.07;2.93;;;13.60;99.90;;;;;;5006211;28;20205;-73
2022/11/09 09:17:09;;;;;;;10.57;3.20;;;13.60;99.90;;;;;;5023595;28;20210;-73
2022/11/09 09:19:36;;;;;;;11.67;3.10;;;13.70;99.90;;;;;;5023633;28;20762;-72
2022/11/09 09:22:02;;;;;;;10.10;3.10;;;13.70;99.90;;;;;;5024364;28;20218;-74
2022/11/09 09:24:29;;;;;;;10.93;2.67;;;13.80;99.90;;;;;;5007547;28;20286;-73
2022/11/09 09:26:56;;;;;;;10.60;2.70;;;13.90;99.90;;;;;;5020436;28;20204;-73
2022/11/09 09:29:23;;;;;;;12.40;3.03;;;13.90;99.90;;;;;;5022204;28;20342;-73
2022/11/09 09:31:50;;;;;;;6.60;2.93;;;14.00;99.90;;;;;;5026668;28;20209;-73
2022/11/09 09:34:16;;;;;;;12.47;3.07;;;14.00;99.90;;;;;;5020738;28;20681;-71
2022/11/09 09:36:43;;;;;;;17.57;3.17;;;14.10;99.90;;;;;;5023441;28;20631;-73
2022/11/09 09:39:14;;;;;;;8.47;2.70;;;14.10;99.90;;;;;;5025189;28;20239;-73
2022/11/09 09:41:51;;;;;;;13.00;2.70;;;14.20;99.90;;;;;;5010645;28;20296;-71
2022/11/09 09:44:31;;;;;;;13.57;3.13;;;14.20;99.90;;;;;;5021062;28;20263;-72
2022/11/09 09:47:16;;;;;;;14.13;2.90;;;14.20;99.90;;;;;;5018913;28;20225;-72
2022/11/09 09:49:45;;;;;;;13.73;2.87;;;14.30;99.90;;;;;;5007185;28;20301;-73
2022/11/09 09:52:35;;;;;;;10.30;3.13;;;14.30;99.90;;;;;;5003946;28;20248;-73
2022/11/09 09:55:11;;;;;;;10.57;2.50;;;14.30;99.90;;;;;;5017245;28;20305;-73
2022/11/09 09:57:40;;;;;;;10.67;3.47;;;14.40;99.90;;;;;;5020547;28;20241;-73
2022/11/09 10:00:19;;;;;;;11.57;2.77;;;14.30;99.90;;;;;;5020384;28;20233;-73
2022/11/09 10:02:47;;;;;;;9.10;2.40;;;14.30;99.90;;;;;;5023643;28;20201;-72
2022/11/09 10:05:15;;;;;;;5.83;2.47;;;14.50;99.90;;;;;;5021264;28;20218;-72
2022/11/09 10:08:01;;;;;;;8.70;2.73;;;14.50;99.90;;;;;;5022464;28;20229;-72
2022/11/09 10:10:45;;;;;;;13.20;3.30;;;14.60;99.90;;;;;;5020717;28;20660;-71
2022/11/09 10:13:41;;;;;;;8.20;2.80;;;14.60;99.90;;;;;;5023355;28;20232;-73
2022/11/09 10:16:32;;;;;;;14.17;3.00;;;14.60;99.90;;;;;;5021709;28;20366;-71
2022/11/09 10:19:29;;;;;;;11.03;2.93;;;14.60;99.90;;;;;;5023405;28;20230;-72
2022/11/09 10:22:23;;;;;;;9.23;2.83;;;14.60;99.90;;;;;;5022996;28;20305;-72
2022/11/09 10:25:00;;;;;;;8.93;2.53;;;14.70;99.90;;;;;;5019879;28;20222;-72
2022/11/09 10:27:56;;;;;;;8.30;2.70;;;14.80;99.90;;;;;;5022336;28;20296;-71
2022/11/09 10:30:24;;;;;;;10.17;2.37;;;14.80;99.90;;;;;;5024892;28;20664;-72
2022/11/09 10:33:14;;;;;;;9.40;3.03;;;14.90;99.90;;;;;;5022995;28;20556;-72
2022/11/09 10:35:51;;;;;;;11.50;3.00;;;14.90;99.90;;;;;;5011740;28;20569;-74
2022/11/09 10:38:24;;;;;;;12.10;3.13;;;15.00;99.90;;;;;;5020065;28;20667;-74
2022/11/09 10:40:55;;;;;;;10.83;2.73;;;15.10;99.90;;;;;;5022399;28;20752;-73
2022/11/09 10:43:22;;;;;;;9.43;2.90;;;15.30;99.90;;;;;;5024473;28;20300;-72
2022/11/09 10:45:59;;;;;;;10.13;2.92;;;15.30;99.90;;;;;;5020560;28;20637;-74
2022/11/09 10:48:38;;;;;;;9.38;2.70;;;15.40;99.90;;;;;;5009634;28;20292;-73
2022/11/09 10:51:25;;;;;;;7.68;2.63;;;15.50;99.90;;;;;;5025425;28;20213;-73
2022/11/09 10:54:22;;;;;;;14.05;3.55;;;15.50;99.90;;;;;;5024587;28;20285;-71
2022/11/09 10:57:14;;;;;;;6.70;2.80;;;15.40;99.90;;;;;;5019591;28;20794;-72
2022/11/09 10:59:47;;;;;;;8.65;3.17;;;15.40;99.90;;;;;;5017661;28;20292;-72
2022/11/09 11:02:56;;;;;;;7.45;2.40;;;15.30;99.90;;;;;;5023717;28;20587;-72
2022/11/09 11:05:29;;;;;;;9.80;2.58;;;15.30;99.90;;;;;;5013521;28;20670;-72
2022/11/09 11:07:56;;;;;;;20.75;3.05;;;15.30;99.90;;;;;;5000775;28;20391;-73
2022/11/09 11:10:23;;;;;;;10.43;2.80;;;15.30;99.90;;;;;;5024165;28;20750;-72
2022/11/09 11:13:20;;;;;;;8.50;2.72;;;15.30;99.90;;;;;;5022686;28;20204;-71
2022/11/09 11:15:48;;;;;;;11.70;2.33;;;15.30;99.90;;;;;;5023592;28;20218;-72
2022/11/09 11:18:25;;;;;;;8.05;2.58;;;15.20;99.90;;;;;;5022839;28;20559;-72
2022/11/09 11:21:14;;;;;;;7.20;2.70;;;15.10;99.90;;;;;;5022219;28;20227;-70
2022/11/09 11:24:02;;;;;;;11.73;2.70;;;15.00;99.90;;;;;;5021318;28;20252;-73
2022/11/09 11:26:33;;;;;;;10.90;3.07;;;15.00;99.90;;;;;;5025040;28;20628;-72
2022/11/09 11:29:09;;;;;;;13.43;3.50;;;14.90;99.90;;;;;;5024870;28;20624;-72
2022/11/09 11:31:36;;;;;;;8.53;2.77;;;14.90;99.90;;;;;;5029436;28;20214;-71
2022/11/09 11:34:07;;;;;;;12.50;2.60;;;14.90;99.90;;;;;;5021575;28;20210;-72
2022/11/09 11:36:57;;;;;;;4.13;1.98;;;15.00;99.90;;;;;;5014797;28;20215;-71
2022/11/09 11:39:43;;;;;;;8.43;2.83;;;15.10;99.90;;;;;;5021849;28;20832;-71
2022/11/09 11:42:24;;;;;;;8.05;2.30;;;15.10;99.90;;;;;;5022178;28;20570;-72
2022/11/09 11:44:57;;;;;;;7.50;2.20;;;15.20;99.90;;;;;;5022064;28;20836;-71
2022/11/09 11:48:08;;;;;;;8.85;2.70;;;15.20;99.90;;;;;;4997647;28;20210;-72
2022/11/09 11:50:40;;;;;;;10.27;2.17;;;15.20;99.90;;;;;;5022512;28;20237;-72
2022/11/09 11:53:13;;;;;;;8.35;2.33;;;15.20;99.90;;;;;;5021546;28;20214;-72
2022/11/09 11:56:01;;;;;;;9.40;2.60;;;15.10;99.90;;;;;;5023214;28;20265;-70
2022/11/09 11:59:02;;;;;;;8.38;2.60;;;15.10;99.90;;;;;;5023864;28;20233;-72
2022/11/09 12:01:57;;;;;;;8.15;2.10;;;15.10;99.90;;;;;;5022514;28;20204;-72
2022/11/09 12:04:45;;;;;;;9.18;2.55;;;15.10;99.90;;;;;;4990433;28;20578;-72
2022/11/09 12:07:40;;;;;;;8.13;2.33;;;15.20;99.90;;;;;;5021405;28;20215;-71
2022/11/09 12:10:19;;;;;;;7.28;1.90;;;15.20;99.90;;;;;;5017357;28;20202;-72
2022/11/09 12:12:53;;;;;;;6.85;2.10;;;15.30;99.90;;;;;;5022131;28;20228;-73
2022/11/09 12:15:45;;;;;;;6.13;2.10;;;15.40;99.90;;;;;;5018844;28;20208;-73
2022/11/09 12:18:21;;;;;;;8.80;2.50;;;15.40;99.90;;;;;;5023229;28;20267;-71
2022/11/09 12:21:04;;;;;;;6.80;1.92;;;15.40;99.90;;;;;;5025474;28;20237;-72
2022/11/09 12:24:00;;;;;;;8.27;2.28;;;15.40;99.90;;;;;;5021714;28;20218;-73
2022/11/09 12:26:35;;;;;;;7.93;2.40;;;15.30;99.90;;;;;;5018560;28;20217;-72
2022/11/09 12:29:26;;;;;;;8.20;2.60;;;15.40;99.90;;;;;;5001616;28;20279;-72
2022/11/09 12:31:53;;;;;;;8.80;2.28;;;15.30;99.90;;;;;;5007244;28;20210;-72
2022/11/09 12:34:31;;;;;;;8.13;2.65;;;15.40;99.90;;;;;;5002598;28;20203;-72
2022/11/09 12:37:08;;;;;;;7.20;2.30;;;15.40;99.90;;;;;;5018091;28;20540;-71
2022/11/09 12:39:52;;;;;;;5.95;2.30;;;15.50;99.90;;;;;;5023799;28;20320;-71
2022/11/09 12:42:25;;;;;;;7.47;2.38;;;15.60;99.90;;;;;;5018915;28;20699;-70
2022/11/09 12:45:10;;;;;;;6.07;2.05;;;15.50;99.90;;;;;;5025148;28;20239;-73
2022/11/09 12:47:41;;;;;;;3.97;1.83;;;15.60;99.90;;;;;;5022101;28;20221;-73
2022/11/09 12:50:22;;;;;;;5.43;1.98;;;15.50;99.90;;;;;;5022947;28;20206;-73
2022/11/09 12:52:51;;;;;;;3.83;2.25;;;15.50;99.90;;;;;;5020360;28;20226;-71
2022/11/09 12:55:27;;;;;;;8.05;2.25;;;15.40;99.90;;;;;;5023114;28;20586;-71
2022/11/09 12:57:54;;;;;;;6.60;2.10;;;15.50;99.90;;;;;;5021663;28;20265;-71
2022/11/09 13:00:32;;;;;;;5.82;2.08;;;15.50;99.90;;;;;;5021037;28;20229;-73
2022/11/09 13:03:03;;;;;;;3.55;2.13;;;15.50;99.90;;;;;;5023690;28;20202;-72
2022/11/09 13:05:36;;;;;;;6.10;1.90;;;15.50;99.90;;;;;;5005829;28;20217;-72